WOLFEBORO: From 07/08/2018 10:00 to 07/23/2018 04:00

Date PRECIPITATION INCREMENT [IN] AIR TEMPERATURE [DEGF] RELATIVE HUMIDITY [%] BAROMETRIC PRESSURE [INHG] AVERAGE WIND SPEED [FT/S] MAXIMUM WIND SPEED [FT/S] MINIMUM WIND SPEED [FT/S] AVERAGE WIND DIRECTION [] MAXIMUM WIND DIRECTION [] MINIMUM WIND DIRECTION []
07/22/2018 16:00 0.01 -- -- 29.50 5.67 16.67 0.00 0.0 0.0 0.0
07/22/2018 15:00 0.05 65.0 85.0 29.50 5.50 15.25 0.00 0.0 0.0 0.0
07/22/2018 14:00 0.07 63.0 84.2 29.51 5.75 16.25 0.00 0.0 0.0 0.0
07/22/2018 13:00 0.03 63.0 83.8 29.51 7.00 17.25 0.00 0.0 0.0 0.0
07/22/2018 12:00 0.00 63.0 81.9 29.51 5.75 15.50 0.00 0.0 0.0 0.0
07/22/2018 11:00 0.03 64.0 78.5 29.51 6.25 15.75 0.00 0.0 0.0 0.0
07/22/2018 10:00 0.00 65.0 71.7 29.51 5.75 15.25 0.00 0.0 0.0 0.0
07/22/2018 09:00 0.00 64.0 68.6 29.51 4.50 13.50 0.00 0.0 0.0 0.0
07/22/2018 08:00 0.00 64.0 68.3 29.50 5.25 14.25 0.00 0.0 0.0 0.0
07/22/2018 07:00 0.00 62.0 71.2 29.50 4.75 12.50 0.00 0.0 0.0 0.0
07/22/2018 06:00 0.00 62.0 72.2 29.50 2.75 8.25 0.00 0.0 0.0 0.0
07/22/2018 05:00 0.00 63.0 72.4 29.50 0.25 5.00 0.00 0.0 0.0 0.0
07/22/2018 04:00 0.00 61.0 71.2 29.50 0.00 3.00 0.00 0.0 0.0 0.0
07/22/2018 03:00 0.00 61.0 71.6 29.50 0.25 2.50 0.00 0.0 0.0 0.0
07/22/2018 02:00 0.00 61.0 74.4 29.51 0.00 0.25 0.00 0.0 11.0 0.0
07/22/2018 01:00 0.00 60.0 73.1 29.52 0.00 0.75 0.00 0.8 31.8 0.0
07/22/2018 00:00 0.00 63.0 60.6 29.53 0.00 0.75 0.00 0.0 0.0 0.0
07/21/2018 23:00 0.00 65.0 50.3 29.54 0.00 2.00 0.00 0.0 5.5 0.0
07/21/2018 22:00 0.00 69.0 44.2 29.53 0.00 3.50 0.00 0.0 0.0 0.0
07/21/2018 21:00 0.00 72.0 34.7 29.52 1.50 8.25 0.00 0.0 6.5 0.0
07/21/2018 20:00 0.00 76.0 29.8 29.50 1.50 8.50 0.00 0.0 0.0 0.0
07/21/2018 19:00 0.00 83.0 18.5 29.49 1.25 8.00 0.00 0.0 30.5 0.0
07/21/2018 18:00 0.00 86.0 14.2 29.50 1.50 8.50 0.00 0.0 25.3 0.0
07/21/2018 17:00 0.00 83.0 17.3 29.50 2.50 9.75 0.00 0.0 8.8 0.0
07/21/2018 16:00 0.00 85.0 14.9 29.51 2.50 10.00 0.00 0.0 21.0 0.0
07/21/2018 15:00 0.00 82.0 13.5 29.52 2.25 9.25 0.00 0.0 17.0 0.0
07/21/2018 14:00 0.00 79.0 24.3 29.53 1.50 8.00 0.00 0.0 11.5 0.0
07/21/2018 13:00 0.00 78.0 26.3 29.54 1.00 6.50 0.00 0.3 38.3 0.0
07/21/2018 12:00 0.00 73.0 53.3 29.55 0.25 4.75 0.00 0.0 17.5 0.0
07/21/2018 11:00 0.00 69.0 62.8 29.55 1.00 5.00 0.00 0.0 3.3 0.0
07/21/2018 10:00 0.00 68.0 62.7 29.55 0.75 4.75 0.00 0.0 0.0 0.0
07/21/2018 09:00 0.00 66.0 66.3 29.55 1.00 4.50 0.00 0.0 0.0 0.0
07/21/2018 08:00 0.00 63.0 67.0 29.55 1.00 4.50 0.00 0.0 0.0 0.0
07/21/2018 07:00 0.00 59.0 77.1 29.54 0.00 1.50 0.00 0.0 0.0 0.0
07/21/2018 06:00 0.00 60.0 75.0 29.53 1.00 4.50 0.00 0.0 0.0 0.0
07/21/2018 05:00 0.00 61.0 75.5 29.53 0.75 3.00 0.00 0.0 0.0 0.0
07/21/2018 04:00 0.00 61.0 70.3 29.53 0.00 0.50 0.00 0.0 0.0 0.0
07/21/2018 03:00 0.00 62.0 70.9 29.54 0.25 2.00 0.00 0.0 0.0 0.0
07/21/2018 02:00 0.00 64.0 64.8 29.54 0.00 1.00 0.00 0.0 0.0 0.0
07/21/2018 01:00 0.00 66.0 45.9 29.54 0.00 0.25 0.00 0.0 0.0 0.0
07/21/2018 00:00 0.00 67.0 47.7 29.55 0.00 1.25 0.00 0.0 0.0 0.0
07/20/2018 23:00 0.00 70.0 38.3 29.55 0.25 4.25 0.00 0.0 0.0 0.0
07/20/2018 22:00 0.00 73.0 37.6 29.53 0.00 4.75 0.00 0.0 25.8 0.0
07/20/2018 21:00 0.00 75.0 40.9 29.52 0.25 6.25 0.00 0.0 1.3 0.0
07/20/2018 20:00 0.00 78.0 30.3 29.51 2.00 8.50 0.00 0.0 17.0 0.0
07/20/2018 19:00 0.00 88.0 11.8 29.51 2.25 10.50 0.00 0.0 31.3 0.0
07/20/2018 18:00 0.00 89.0 14.2 29.50 2.00 8.75 0.00 0.0 2.3 0.0
07/20/2018 17:00 0.00 90.0 9.9 29.51 2.00 9.50 0.00 0.0 21.8 0.0
07/20/2018 16:00 0.00 90.0 9.3 29.52 0.50 5.00 0.00 0.0 28.3 0.0
07/20/2018 15:00 0.00 87.0 10.7 29.53 1.25 5.50 0.00 0.3 46.8 0.0
07/20/2018 14:00 0.00 84.0 13.9 29.55 1.25 5.50 0.00 0.3 35.0 0.0
07/20/2018 13:00 0.00 81.0 13.1 29.56 0.50 4.00 0.00 0.3 52.8 0.0
07/20/2018 12:00 0.00 76.0 44.3 29.56 0.50 3.25 0.00 0.0 42.5 0.0
07/20/2018 11:00 0.00 72.0 52.1 29.56 0.00 3.00 0.00 0.0 40.0 0.0
07/20/2018 10:00 0.00 69.0 59.2 29.56 0.00 1.25 0.00 0.3 40.0 0.0
07/20/2018 09:00 0.00 66.0 66.9 29.55 0.00 0.00 0.00 0.5 34.8 0.0
07/20/2018 08:00 0.00 63.0 73.6 29.53 0.00 0.00 0.00 0.0 0.0 0.0
07/20/2018 07:00 0.00 59.0 78.3 29.52 0.00 0.00 0.00 0.0 0.0 0.0
07/20/2018 06:00 0.00 60.0 76.1 29.52 0.00 0.00 0.00 0.0 0.0 0.0
07/20/2018 05:00 0.00 60.0 77.4 29.51 0.00 0.00 0.00 0.0 0.0 0.0
07/20/2018 04:00 0.00 61.0 76.5 29.50 0.00 0.00 0.00 0.0 0.0 0.0
07/20/2018 03:00 0.00 63.0 74.5 29.50 0.00 0.00 0.00 0.0 0.0 0.0
07/20/2018 02:00 0.00 64.0 71.2 29.50 0.00 0.00 0.00 0.0 0.0 0.0
07/20/2018 01:00 0.00 66.0 64.2 29.50 0.00 0.00 0.00 0.0 0.0 0.0
07/20/2018 00:00 0.00 67.0 58.2 29.48 0.00 0.00 0.00 0.0 11.5 0.0
07/19/2018 23:00 0.00 69.0 44.2 29.47 0.00 1.75 0.00 0.0 8.5 0.0
07/19/2018 22:00 0.00 71.0 39.5 29.45 0.00 1.75 0.00 0.0 11.3 0.0
07/19/2018 21:00 0.00 75.0 29.1 29.43 0.25 4.75 0.00 0.0 40.5 0.0
07/19/2018 20:00 0.00 79.0 17.9 29.42 0.75 5.50 0.00 0.5 62.8 0.0
07/19/2018 19:00 0.00 88.0 7.2 29.42 1.50 6.50 0.00 0.3 54.0 0.0
07/19/2018 18:00 0.00 84.0 8.9 29.43 1.00 5.25 0.00 0.3 58.0 0.0
07/19/2018 17:00 0.00 86.0 7.4 29.43 1.00 5.50 0.00 0.0 47.0 0.0
07/19/2018 16:00 0.00 83.0 7.4 29.44 1.50 7.25 0.00 0.0 46.0 0.0
07/19/2018 15:00 0.00 80.0 5.6 29.45 1.25 6.50 0.00 0.3 46.5 0.0
07/19/2018 14:00 0.00 78.0 11.3 29.46 1.25 6.75 0.00 0.0 34.5 0.0
07/19/2018 13:00 0.00 75.0 11.8 29.47 1.50 7.50 0.00 0.0 31.8 0.0
07/19/2018 12:00 0.00 72.0 29.6 29.46 0.75 4.50 0.00 0.0 37.3 0.0
07/19/2018 11:00 0.00 69.0 47.5 29.46 0.00 4.50 0.00 0.0 34.5 0.0
07/19/2018 10:00 0.00 65.0 55.7 29.45 0.25 3.25 0.00 0.3 43.0 0.0
07/19/2018 09:00 0.00 62.0 61.6 29.45 0.50 4.75 0.00 0.3 42.3 0.0
07/19/2018 08:00 0.00 59.0 69.6 29.44 0.00 1.25 0.00 0.0 29.0 0.0
07/19/2018 07:00 0.00 56.0 75.4 29.43 0.00 0.00 0.00 0.0 14.3 0.0
07/19/2018 06:00 0.00 56.0 75.8 29.41 0.00 0.00 0.00 0.0 0.0 0.0
07/19/2018 05:00 0.00 57.0 74.9 29.40 0.00 0.00 0.00 0.0 0.0 0.0
07/19/2018 04:00 0.00 57.0 74.2 29.40 0.00 0.00 0.00 0.0 11.5 0.0
07/19/2018 03:00 0.00 58.0 71.4 29.39 0.00 0.00 0.00 0.0 0.0 0.0
07/19/2018 02:00 0.00 59.0 67.1 29.38 0.00 0.50 0.00 0.0 0.0 0.0
07/19/2018 01:00 0.00 62.0 64.2 29.37 0.00 0.00 0.00 0.0 0.0 0.0
07/19/2018 00:00 -- 63.0 55.5 -- -- -- -- -- -- --
07/18/2018 23:00 0.00 66.0 35.7 29.34 0.00 2.00 0.00 0.0 0.0 0.0
07/18/2018 22:00 0.00 69.0 25.4 29.31 0.00 2.75 0.00 0.0 20.8 0.0
07/18/2018 21:00 0.00 73.0 16.3 29.30 1.25 8.25 0.00 0.0 6.5 0.0
07/18/2018 20:00 0.00 77.0 12.5 29.27 2.00 10.50 0.00 0.0 31.3 0.0
07/18/2018 19:00 0.00 83.0 8.4 29.26 2.75 11.75 0.00 0.0 38.5 0.0
07/18/2018 18:00 0.00 84.0 9.1 29.26 4.00 13.75 0.00 0.0 43.8 0.0
07/18/2018 17:00 0.00 81.0 9.3 29.26 4.25 13.00 0.00 0.0 43.3 0.0
07/18/2018 16:00 0.00 79.0 11.1 29.25 4.75 14.50 0.00 0.0 52.0 0.0
07/18/2018 15:00 0.00 78.0 13.9 29.25 4.25 15.00 0.00 0.0 37.3 0.0
07/18/2018 14:00 0.00 75.0 14.9 29.25 4.25 15.50 0.00 0.0 37.8 0.0
07/18/2018 13:00 0.00 73.0 21.3 29.25 4.75 17.00 0.00 0.0 43.5 0.0
07/18/2018 12:00 0.00 72.0 38.2 29.25 4.00 14.50 0.00 0.0 33.5 0.0
07/18/2018 11:00 0.00 70.0 45.3 29.26 3.50 12.75 0.00 0.0 43.5 0.0
07/18/2018 10:00 0.00 68.0 58.1 29.25 1.50 9.75 0.00 0.0 42.0 0.0
07/18/2018 09:00 0.01 67.0 66.2 29.25 1.25 8.50 0.00 4.0 74.3 0.0
07/18/2018 08:00 0.00 65.0 76.7 29.24 0.25 5.75 0.00 31.0 178.8 0.0
07/18/2018 07:00 0.00 64.0 86.5 29.22 0.25 4.75 0.00 0.5 80.3 0.0
07/18/2018 06:00 0.00 65.0 87.6 29.19 0.00 0.25 0.00 0.8 87.8 0.0
07/18/2018 05:00 0.00 68.0 87.7 29.17 0.00 0.00 0.00 0.3 62.8 0.0
07/18/2018 04:00 0.00 68.0 87.7 29.16 0.25 3.25 0.00 0.3 86.8 0.0
07/18/2018 03:00 0.00 69.0 88.0 29.15 0.00 4.00 0.00 0.3 62.5 0.0
07/18/2018 02:00 0.00 69.0 88.1 29.16 0.00 0.50 0.00 0.0 57.0 0.0
07/18/2018 01:00 0.00 69.0 87.6 29.16 0.00 0.00 0.00 0.0 0.0 0.0
07/18/2018 00:00 0.00 70.0 87.2 29.15 0.00 0.00 0.00 0.0 19.3 0.0
07/17/2018 23:00 0.35 70.0 87.0 29.15 0.50 6.75 0.00 1.0 83.3 0.0
07/17/2018 22:00 0.25 70.0 84.8 29.15 0.25 4.25 0.00 0.8 83.8 0.0
07/17/2018 21:00 0.00 71.0 82.7 29.15 0.00 2.75 0.00 0.0 17.5 0.0
07/17/2018 20:00 0.00 71.0 81.9 29.14 0.25 5.25 0.00 0.0 31.3 0.0
07/17/2018 19:00 0.00 71.0 80.4 29.14 0.50 5.75 0.00 0.0 37.8 0.0
07/17/2018 18:00 0.00 71.0 80.1 29.14 0.25 4.00 0.00 0.0 38.8 0.0
07/17/2018 17:00 0.01 72.0 77.5 29.16 0.25 6.75 0.00 0.5 60.5 0.0
07/17/2018 16:00 0.03 73.0 80.6 29.16 0.25 3.75 0.00 0.5 62.8 0.0
07/17/2018 15:00 0.07 74.0 83.7 29.17 0.00 0.50 0.00 0.0 32.5 0.0
07/17/2018 14:00 0.10 74.0 79.2 29.17 0.00 2.25 0.00 0.0 38.8 0.0
07/17/2018 13:00 0.02 75.0 78.5 29.19 0.00 2.25 0.00 0.3 36.3 0.0
07/17/2018 12:00 0.00 77.0 71.0 29.20 0.00 2.50 0.00 0.3 33.8 0.0
07/17/2018 11:00 0.00 76.0 74.4 29.20 0.00 1.50 0.00 0.3 39.0 0.0
07/17/2018 10:00 0.00 76.0 70.8 29.21 0.00 4.00 0.00 0.0 28.0 0.0
07/17/2018 09:00 0.00 76.1 70.1 29.21 0.00 4.00 0.00 0.0 28.0 0.0
07/17/2018 08:00 0.00 76.2 69.4 29.21 0.00 4.00 0.00 0.0 28.0 0.0
07/17/2018 07:00 0.00 76.3 68.7 29.21 0.00 4.00 0.00 0.0 28.0 0.0
07/17/2018 06:00 0.00 76.4 68.0 29.21 0.00 4.00 0.00 0.0 28.0 0.0
07/17/2018 05:00 0.00 76.5 67.2 29.21 0.00 4.00 0.00 0.0 28.0 0.0
07/17/2018 04:00 0.00 76.5 66.5 29.21 0.00 4.00 0.00 0.0 28.0 0.0
07/17/2018 03:00 0.00 76.6 65.8 29.21 0.00 4.00 0.00 0.0 28.0 0.0
07/17/2018 02:00 0.00 76.7 65.1 29.21 0.00 4.00 0.00 0.0 28.0 0.0
07/17/2018 01:00 0.00 76.8 64.4 29.21 0.00 4.00 0.00 0.0 28.0 0.0
07/17/2018 00:00 0.00 76.9 63.7 29.21 0.00 4.00 0.00 0.0 28.0 0.0
07/16/2018 23:00 0.00 77.0 63.0 29.30 0.00 3.33 0.00 0.0 11.3 0.0
07/16/2018 22:00 0.00 78.0 58.0 29.30 0.00 3.00 0.00 0.0 7.8 0.0
07/16/2018 21:00 0.00 80.0 39.8 29.30 0.25 3.75 0.00 0.0 7.3 0.0
07/16/2018 20:00 0.00 84.0 25.6 29.30 1.50 10.00 0.00 0.0 31.3 0.0
07/16/2018 19:00 0.00 89.0 27.3 29.30 2.50 12.75 0.00 0.0 39.5 0.0
07/16/2018 18:00 0.00 92.0 25.6 29.30 2.25 10.75 0.00 0.0 22.0 0.0
07/16/2018 17:00 0.00 94.0 18.8 29.32 1.75 9.50 0.00 0.0 15.0 0.0
07/16/2018 16:00 0.00 91.0 22.5 29.33 1.25 9.00 0.00 0.0 36.8 0.0
07/16/2018 15:00 0.00 90.0 26.2 29.34 0.50 5.25 0.00 0.3 49.3 0.0
07/16/2018 14:00 0.00 88.0 20.6 29.35 0.00 3.50 0.00 0.0 48.5 0.0
07/16/2018 13:00 0.00 86.0 15.0 29.36 0.50 3.75 0.00 0.5 51.5 0.0
07/16/2018 12:00 0.00 80.0 42.2 29.37 0.50 3.50 0.00 0.5 53.3 0.0
07/16/2018 11:00 0.00 77.0 60.5 29.38 0.25 4.25 0.00 0.0 34.0 0.0
07/16/2018 10:00 0.00 75.0 65.1 29.38 0.00 3.25 0.00 0.0 30.3 0.0
07/16/2018 09:00 0.00 73.0 69.7 29.38 0.00 0.50 0.00 0.0 25.8 0.0
07/16/2018 08:00 0.00 72.0 70.7 29.38 0.00 2.75 0.00 0.0 10.3 0.0
07/16/2018 07:00 0.00 71.0 72.8 29.37 0.00 1.75 0.00 0.0 5.0 0.0
07/16/2018 06:00 0.00 71.0 74.1 29.36 0.00 2.50 0.00 0.0 6.0 0.0
07/16/2018 05:00 0.00 72.0 76.0 29.36 0.00 1.25 0.00 0.0 11.5 0.0
07/16/2018 04:00 0.00 71.0 78.4 29.37 0.00 0.00 0.00 0.0 9.0 0.0
07/16/2018 03:00 0.00 70.0 78.5 29.36 0.00 0.00 0.00 0.0 4.0 0.0
07/16/2018 02:00 0.00 70.0 78.6 29.37 0.00 0.00 0.00 0.0 1.5 0.0
07/16/2018 01:00 0.00 71.0 75.1 29.37 0.00 0.75 0.00 0.0 8.8 0.0
07/16/2018 00:00 0.00 71.0 74.8 29.36 0.00 1.25 0.00 0.0 16.3 0.0
07/15/2018 23:00 0.00 74.0 69.1 29.35 0.00 0.00 0.00 0.0 0.0 0.0
07/15/2018 22:00 0.00 76.0 65.5 29.34 0.00 1.00 0.00 0.0 17.5 0.0
07/15/2018 21:00 0.00 79.0 58.0 29.32 0.00 3.50 0.00 0.0 1.3 0.0
07/15/2018 20:00 0.00 81.0 54.3 29.30 0.50 6.25 0.00 0.0 19.8 0.0
07/15/2018 19:00 0.00 85.0 43.2 29.30 1.00 7.25 0.00 0.0 24.3 0.0
07/15/2018 18:00 0.00 90.0 29.2 29.31 1.00 7.00 0.00 0.0 32.0 0.0
07/15/2018 17:00 0.00 90.0 23.4 29.31 0.75 6.25 0.00 0.0 2.5 0.0
07/15/2018 16:00 0.00 85.0 25.2 29.33 3.25 15.50 0.00 0.0 9.3 0.0
07/15/2018 15:00 0.00 84.0 36.1 29.32 0.00 3.75 0.00 0.0 35.8 0.0
07/15/2018 14:00 0.00 83.0 36.0 29.33 0.25 1.50 0.00 0.0 40.0 0.0
07/15/2018 13:00 0.00 80.0 45.3 29.34 0.00 1.00 0.00 0.3 51.0 0.0
07/15/2018 12:00 0.00 75.0 56.0 29.34 0.50 4.75 0.00 0.0 53.3 0.0
07/15/2018 11:00 0.00 72.0 60.2 29.35 0.50 4.75 0.00 0.5 58.5 0.0
07/15/2018 10:00 0.00 71.0 61.6 29.36 0.25 1.75 0.00 0.0 28.5 0.0
07/15/2018 09:00 0.00 69.0 63.1 29.37 0.00 0.75 0.00 0.0 43.5 0.0
07/15/2018 08:00 0.00 68.0 65.4 29.38 0.00 0.50 0.00 0.0 0.0 0.0
07/15/2018 07:00 0.00 66.0 69.6 29.37 0.00 0.75 0.00 0.0 0.0 0.0
07/15/2018 06:00 0.00 66.0 67.2 29.37 0.00 0.25 0.00 0.0 0.0 0.0
07/15/2018 05:00 0.00 66.0 65.8 29.38 0.00 0.00 0.00 0.0 8.5 0.0
07/15/2018 04:00 0.00 66.0 66.6 29.39 0.00 0.25 0.00 0.0 9.0 0.0
07/15/2018 03:00 0.00 65.0 66.1 29.40 0.00 0.75 0.00 0.0 9.5 0.0
07/15/2018 02:00 0.00 66.0 62.9 29.41 0.00 3.00 0.00 0.0 50.8 0.0
07/15/2018 01:00 0.00 66.0 63.9 29.42 0.00 3.00 0.00 0.0 18.0 0.0
07/15/2018 00:00 0.00 67.0 59.3 29.43 0.00 3.00 0.00 0.0 30.0 0.0
07/14/2018 23:00 0.00 68.0 52.4 29.44 0.00 2.67 0.00 0.0 12.3 0.0
07/14/2018 22:00 0.00 68.0 53.8 29.43 0.00 3.50 0.00 0.0 21.8 0.0
07/14/2018 21:00 0.00 69.0 53.8 29.43 0.25 4.25 0.00 0.0 0.0 0.0
07/14/2018 20:00 0.00 69.0 53.0 29.43 0.75 5.75 0.00 0.0 46.3 0.0
07/14/2018 19:00 0.00 72.0 41.3 29.44 1.50 7.25 0.00 0.0 13.8 0.0
07/14/2018 18:00 0.00 73.0 41.5 29.45 1.25 6.75 0.00 0.0 8.5 0.0
07/14/2018 17:00 0.00 74.0 42.7 29.46 1.25 6.75 0.00 0.0 0.0 0.0
07/14/2018 16:00 0.00 75.0 41.5 29.47 1.25 6.00 0.00 0.0 6.8 0.0
07/14/2018 15:00 0.00 75.0 42.1 29.48 1.00 6.75 0.00 0.0 31.8 0.0
07/14/2018 14:00 0.00 75.0 44.5 29.50 0.50 5.75 0.00 0.0 3.3 0.0
07/14/2018 13:00 0.00 72.0 49.9 29.52 1.00 6.25 0.00 0.0 0.0 0.0
07/14/2018 12:00 0.00 71.0 53.3 29.52 0.50 4.75 0.00 0.0 30.0 0.0
07/14/2018 11:00 0.00 69.0 56.4 29.53 1.00 5.75 0.00 0.0 16.8 0.0
07/14/2018 10:00 0.00 68.0 56.4 29.55 0.00 3.25 0.00 0.0 0.0 0.0
07/14/2018 09:00 0.00 66.0 58.4 29.56 0.00 0.75 0.00 0.0 0.0 0.0
07/14/2018 08:00 0.00 64.0 65.8 29.56 0.00 1.25 0.00 0.0 0.0 0.0
07/14/2018 07:00 0.00 62.0 68.0 29.55 0.00 1.75 0.00 0.0 0.0 0.0
07/14/2018 06:00 0.00 61.0 72.8 29.57 0.00 0.25 0.00 0.0 0.0 0.0
07/14/2018 05:00 0.00 61.0 70.4 29.57 0.00 0.25 0.00 0.0 0.0 0.0
07/14/2018 04:00 0.00 61.0 67.5 29.58 0.00 1.25 0.00 0.0 0.0 0.0
07/14/2018 03:00 0.00 63.0 64.1 29.60 0.00 0.25 0.00 0.0 0.0 0.0
07/14/2018 02:00 0.00 64.0 56.3 29.61 0.00 1.00 0.00 0.0 0.0 0.0
07/14/2018 01:00 0.00 65.0 45.4 29.61 0.00 3.50 0.00 0.0 0.0 0.0
07/14/2018 00:00 0.00 66.0 43.6 29.62 0.00 0.50 0.00 0.0 9.0 0.0
07/13/2018 23:00 0.00 67.0 43.9 29.62 0.00 0.50 0.00 0.0 0.0 0.0
07/13/2018 22:00 0.00 69.0 33.6 29.60 0.00 3.25 0.00 0.0 0.0 0.0
07/13/2018 21:00 0.00 72.0 31.1 29.59 1.50 8.00 0.00 0.3 27.3 0.0
07/13/2018 20:00 0.00 76.0 23.7 29.58 1.75 9.50 0.00 0.0 18.3 0.0
07/13/2018 19:00 0.00 84.0 17.6 29.57 3.00 12.25 0.00 0.0 6.0 0.0
07/13/2018 18:00 0.00 85.0 20.3 29.58 2.50 11.75 0.00 0.0 22.3 0.0
07/13/2018 17:00 0.00 84.0 24.6 29.57 3.50 12.75 0.00 0.0 6.5 0.0
07/13/2018 16:00 0.00 83.0 23.8 29.57 2.00 8.50 0.00 0.0 6.3 0.0
07/13/2018 15:00 0.00 85.0 17.7 29.58 1.50 6.00 0.00 0.0 14.5 0.0
07/13/2018 14:00 0.00 81.0 26.6 29.59 3.00 9.25 0.00 0.0 0.0 0.0
07/13/2018 13:00 0.00 77.0 29.1 29.61 3.00 9.00 0.00 0.0 0.0 0.0
07/13/2018 12:00 0.00 74.0 34.5 29.62 1.25 6.25 0.00 0.0 0.0 0.0
07/13/2018 11:00 0.00 72.0 33.7 29.63 0.25 3.75 0.00 0.0 0.8 0.0
07/13/2018 10:00 0.00 69.0 46.0 29.63 0.25 3.75 0.00 0.0 0.0 0.0
07/13/2018 09:00 0.00 65.0 50.8 29.63 0.25 2.25 0.00 0.0 0.0 0.0
07/13/2018 08:00 0.00 63.0 57.3 29.61 0.00 0.00 0.00 0.3 34.5 0.0
07/13/2018 07:00 0.00 60.0 67.3 29.61 0.00 0.00 0.00 0.0 0.0 0.0
07/13/2018 06:00 0.00 62.0 64.7 29.59 0.25 1.50 0.00 0.0 0.0 0.0
07/13/2018 05:00 0.00 62.0 58.2 29.59 0.00 0.00 0.00 0.0 0.0 0.0
07/13/2018 04:00 0.00 64.0 48.7 29.58 0.00 0.50 0.00 0.0 10.0 0.0
07/13/2018 03:00 0.00 65.0 39.7 29.59 0.00 1.25 0.00 0.0 17.3 0.0
07/13/2018 02:00 0.00 67.0 36.8 29.60 0.00 2.25 0.00 0.0 14.5 0.0
07/13/2018 01:00 0.00 67.0 36.7 29.61 0.00 1.00 0.00 0.0 1.3 0.0
07/13/2018 00:00 0.00 69.0 31.9 29.60 0.25 3.50 0.00 0.5 74.8 0.0
07/12/2018 23:00 0.00 70.0 30.1 29.59 0.00 5.00 0.00 0.3 52.0 0.0
07/12/2018 22:00 0.00 71.0 29.2 29.57 0.50 5.75 0.00 0.3 48.5 0.0
07/12/2018 21:00 0.00 73.0 26.7 29.56 1.50 9.00 0.00 0.0 36.3 0.0
07/12/2018 20:00 0.00 76.0 24.9 29.55 0.75 7.00 0.00 0.0 19.3 0.0
07/12/2018 19:00 0.00 78.0 19.8 29.55 0.00 2.00 0.00 0.0 31.5 0.0
07/12/2018 18:00 0.00 78.0 16.3 29.55 0.00 1.00 0.00 0.0 8.8 0.0
07/12/2018 17:00 0.00 79.0 13.9 29.55 0.00 1.75 0.00 0.0 49.8 0.0
07/12/2018 16:00 0.00 83.0 9.9 29.56 0.00 2.75 0.00 0.3 50.5 0.0
07/12/2018 15:00 0.00 80.0 12.5 29.57 0.00 4.00 0.00 0.5 56.5 0.0
07/12/2018 14:00 0.00 76.0 17.6 29.58 1.50 6.50 0.00 0.5 74.3 0.0
07/12/2018 13:00 0.00 78.0 12.8 29.57 1.50 7.25 0.00 0.0 37.0 0.0
07/12/2018 12:00 0.00 73.0 27.7 29.56 1.25 6.00 0.00 0.0 48.5 0.0
07/12/2018 11:00 0.00 71.0 34.9 29.55 0.25 4.50 0.00 0.0 44.8 0.0
07/12/2018 10:00 0.00 69.0 46.3 29.55 0.00 3.00 0.00 0.0 37.0 0.0
07/12/2018 09:00 0.00 65.0 48.1 29.54 0.00 0.50 0.00 0.0 23.0 0.0
07/12/2018 08:00 0.00 63.0 57.6 29.52 0.00 0.00 0.00 0.0 0.0 0.0
07/12/2018 07:00 0.00 60.0 63.3 29.51 0.00 0.00 0.00 0.0 0.0 0.0
07/12/2018 06:00 0.00 59.0 57.8 29.50 0.00 0.00 0.00 0.0 0.0 0.0
07/12/2018 05:00 0.00 59.0 58.1 29.48 0.00 0.00 0.00 0.0 0.0 0.0
07/12/2018 04:00 0.00 60.0 50.7 29.48 0.00 0.00 0.00 0.0 0.0 0.0
07/12/2018 03:00 0.00 62.0 43.5 29.47 0.00 0.00 0.00 2.0 52.8 0.0
07/12/2018 02:00 0.00 62.0 42.6 29.46 0.00 0.00 0.00 0.0 15.0 0.0
07/12/2018 01:00 0.00 66.0 33.5 29.45 0.00 2.25 0.00 0.0 0.0 0.0
07/12/2018 00:00 0.00 69.0 24.1 29.43 2.50 7.75 0.00 0.0 0.0 0.0
07/11/2018 23:00 0.00 70.0 37.7 29.43 0.50 5.00 0.00 0.0 0.0 0.0
07/11/2018 22:00 0.00 74.0 24.2 29.40 2.75 10.75 0.00 0.0 0.0 0.0
07/11/2018 21:00 0.00 78.0 13.2 29.38 1.50 8.00 0.00 0.0 20.3 0.0
07/11/2018 20:00 0.00 80.0 11.3 29.36 2.00 9.50 0.00 0.0 37.8 0.0
07/11/2018 19:00 0.00 87.0 7.8 29.36 0.50 4.00 0.00 0.0 40.0 0.0
07/11/2018 18:00 0.00 87.0 9.5 29.36 0.75 5.25 0.00 0.0 23.8 0.0
07/11/2018 17:00 0.00 86.0 11.1 29.36 0.50 6.00 0.00 0.0 49.8 0.0
07/11/2018 16:00 0.00 84.0 12.7 29.37 1.50 8.50 0.00 0.0 40.8 0.0
07/11/2018 15:00 0.00 83.0 10.9 29.37 1.50 7.00 0.00 0.0 0.0 0.0
07/11/2018 14:00 0.00 78.0 16.5 29.39 1.75 7.00 0.00 0.0 5.8 0.0
07/11/2018 13:00 0.00 75.0 20.1 29.40 2.00 7.25 0.00 0.0 0.0 0.0
07/11/2018 12:00 0.00 74.0 20.7 29.39 3.25 12.00 0.00 0.0 0.0 0.0
07/11/2018 11:00 0.00 71.0 27.6 29.39 5.00 13.75 0.00 0.0 0.0 0.0
07/11/2018 10:00 0.00 70.0 35.0 29.38 4.50 12.75 0.00 0.0 0.0 0.0
07/11/2018 09:00 0.00 69.0 39.1 29.37 4.50 12.75 0.00 0.0 0.0 0.0
07/11/2018 08:00 0.00 68.0 42.5 29.35 4.75 11.50 0.00 0.0 0.0 0.0
07/11/2018 07:00 -- 68.0 41.1 -- -- -- -- -- -- --
07/11/2018 06:00 0.00 70.0 48.3 29.31 2.67 11.33 0.00 0.0 0.0 0.0
07/11/2018 05:00 0.00 71.0 48.2 29.30 2.75 11.25 0.00 0.0 9.0 0.0
07/11/2018 04:00 0.00 72.0 45.7 29.29 2.25 8.75 0.00 0.0 0.0 0.0
07/11/2018 03:00 0.00 73.0 39.4 29.29 2.00 6.75 0.00 0.0 1.5 0.0
07/11/2018 02:00 0.00 74.0 40.3 29.28 1.25 6.75 0.00 0.0 0.0 0.0
07/11/2018 01:00 0.00 73.0 50.1 29.28 0.00 2.00 0.00 0.0 0.0 0.0
07/11/2018 00:00 0.00 74.5 43.5 29.28 0.00 2.00 0.00 0.0 0.0 0.0
07/10/2018 23:00 0.00 76.0 37.0 29.26 0.00 3.33 0.00 0.0 0.0 0.0
07/10/2018 22:00 0.00 77.0 39.4 29.23 0.25 2.50 0.00 0.0 0.0 0.0
07/10/2018 21:00 0.00 80.0 38.8 29.22 0.25 4.25 0.00 0.0 32.0 0.0
07/10/2018 20:00 0.00 82.0 35.5 29.20 0.25 4.00 0.00 0.5 67.8 0.0
07/10/2018 19:00 0.00 83.0 37.2 29.20 0.25 4.25 0.00 0.5 49.5 0.0
07/10/2018 18:00 0.00 87.0 23.5 29.19 2.75 10.75 0.00 0.0 30.8 0.0
07/10/2018 17:00 0.00 96.0 13.2 29.19 2.00 9.25 0.00 0.0 49.5 0.0
07/10/2018 16:00 0.00 92.0 14.8 29.20 3.50 12.00 0.00 0.0 43.3 0.0
07/10/2018 15:00 0.00 91.0 14.5 29.22 2.50 11.50 0.00 0.0 37.8 0.0
07/10/2018 14:00 0.00 87.0 17.0 29.24 1.25 8.75 0.00 0.0 40.0 0.0
07/10/2018 13:00 0.00 85.0 18.2 29.25 1.25 7.75 0.00 0.5 54.5 0.0
07/10/2018 12:00 0.00 82.0 27.3 29.25 2.00 10.25 0.00 0.0 45.3 0.0
07/10/2018 11:00 0.00 79.0 30.8 29.27 1.75 8.00 0.00 0.0 48.8 0.0
07/10/2018 10:00 0.00 77.0 32.4 29.27 0.50 7.50 0.00 0.0 37.0 0.0
07/10/2018 09:00 0.00 75.0 47.4 29.28 0.00 1.50 0.00 0.0 35.3 0.0
07/10/2018 08:00 0.00 69.0 62.4 29.28 0.00 0.00 0.00 0.0 0.0 0.0
07/10/2018 07:00 0.00 67.0 67.8 29.28 0.00 0.00 0.00 0.0 15.5 0.0
07/10/2018 06:00 0.00 66.0 70.7 29.28 0.00 0.50 0.00 0.0 19.8 0.0
07/10/2018 05:00 0.00 67.0 66.6 29.29 0.00 0.00 0.00 0.0 11.5 0.0
07/10/2018 04:00 0.00 69.0 60.9 29.30 0.00 0.00 0.00 0.0 0.0 0.0
07/10/2018 03:00 0.00 70.0 56.2 29.31 0.00 0.00 0.00 0.0 6.0 0.0
07/10/2018 02:00 0.00 71.0 51.6 29.32 0.00 0.00 0.00 0.0 13.3 0.0
07/10/2018 01:00 0.00 73.0 52.2 29.34 0.00 0.00 0.00 0.0 15.8 0.0
07/10/2018 00:00 0.00 73.0 51.9 29.34 0.00 0.00 0.00 0.0 0.0 0.0
07/09/2018 23:00 0.00 76.0 44.0 29.35 0.00 0.00 0.00 0.0 0.0 0.0
07/09/2018 22:00 0.00 78.0 34.1 29.35 0.00 0.75 0.00 0.3 57.0 0.0
07/09/2018 21:00 0.00 82.0 27.8 29.34 0.25 6.00 0.00 0.0 36.3 0.0
07/09/2018 20:00 0.00 88.0 16.3 29.35 0.50 5.75 0.00 0.3 49.5 0.0
07/09/2018 19:00 0.00 96.0 6.0 29.36 1.50 7.50 0.00 0.3 55.8 0.0
07/09/2018 18:00 0.00 97.0 6.1 29.38 1.50 9.25 0.00 0.0 41.5 0.0
07/09/2018 17:00 0.00 96.0 5.1 29.41 1.75 9.00 0.00 0.0 41.3 0.0
07/09/2018 16:00 0.00 94.0 7.6 29.42 0.25 5.50 0.00 0.0 42.8 0.0
07/09/2018 15:00 0.00 91.0 10.2 29.44 0.25 3.75 0.00 0.0 34.0 0.0
07/09/2018 14:00 0.00 88.0 13.5 29.46 1.25 7.75 0.00 0.0 34.8 0.0
07/09/2018 13:00 0.00 83.0 17.2 29.49 2.00 10.75 0.00 0.0 39.3 0.0
07/09/2018 12:00 0.00 80.0 26.3 29.50 2.25 9.25 0.00 0.0 42.8 0.0
07/09/2018 11:00 0.00 77.0 37.1 29.52 1.50 7.00 0.00 0.0 40.8 0.0
07/09/2018 10:00 0.00 74.0 43.9 29.54 1.50 7.00 0.00 0.0 39.8 0.0
07/09/2018 09:00 0.00 71.0 50.0 29.54 0.00 3.00 0.00 0.0 38.8 0.0
07/09/2018 08:00 0.00 69.0 55.6 29.54 0.00 0.50 0.00 0.0 11.5 0.0
07/09/2018 07:00 0.00 64.0 72.4 29.54 0.00 0.00 0.00 0.0 0.0 0.0
07/09/2018 06:00 0.00 63.0 71.8 29.53 0.00 1.00 0.00 0.8 51.0 0.0
07/09/2018 05:00 0.00 63.0 70.0 29.55 0.00 0.00 0.00 0.0 0.0 0.0
07/09/2018 04:00 0.00 66.0 71.8 29.56 0.00 0.00 0.00 0.0 0.0 0.0
07/09/2018 03:00 0.00 67.0 66.0 29.56 0.00 0.00 0.00 1.0 33.8 0.0
07/09/2018 02:00 0.00 69.0 59.4 29.58 0.00 0.00 0.00 0.0 0.0 0.0
07/09/2018 01:00 0.00 70.0 50.2 29.58 0.25 3.25 0.00 0.0 41.5 0.0
07/09/2018 00:00 0.00 72.0 44.4 29.59 0.50 5.75 0.00 0.0 36.0 0.0
07/08/2018 23:00 0.00 74.0 39.5 29.60 0.00 2.50 0.00 0.5 67.0 0.0
07/08/2018 22:00 0.00 76.0 33.1 29.60 0.00 4.00 0.00 0.5 66.0 0.0
07/08/2018 21:00 0.00 79.0 26.0 29.60 0.25 5.25 0.00 0.0 42.5 0.0
07/08/2018 20:00 0.00 83.0 17.3 29.59 1.00 8.00 0.00 0.3 50.5 0.0
07/08/2018 19:00 0.00 89.0 9.6 29.60 0.75 6.00 0.00 0.0 40.3 0.0
07/08/2018 18:00 0.00 92.0 7.2 29.63 0.50 5.25 0.00 0.5 67.3 0.0
07/08/2018 17:00 0.00 89.0 7.6 29.64 0.25 4.50 0.00 0.0 53.8 0.0
07/08/2018 16:00 -- -- -- -- -- -- -- -- -- --
07/08/2018 15:00 -- -- -- -- -- -- -- -- -- --
07/08/2018 14:00 -- -- -- -- -- -- -- -- -- --
07/08/2018 13:00 -- -- -- -- -- -- -- -- -- --
07/08/2018 12:00 -- -- -- -- -- -- -- -- -- --
07/08/2018 11:00 -- -- -- -- -- -- -- -- -- --
07/08/2018 10:00 -- -- -- -- -- -- -- -- -- --